sensor_id;sensor_type;location;lat;lon;timestamp;temperature;humidity
25933;DHT22;13731;51.166;4.474;2022-08-19T00:01:51;20.10;1.00
25933;DHT22;13731;51.166;4.474;2022-08-19T00:04:23;20.00;1.00
25933;DHT22;13731;51.166;4.474;2022-08-19T00:06:50;20.10;1.00
25933;DHT22;13731;51.166;4.474;2022-08-19T00:09:17;20.20;1.00
25933;DHT22;13731;51.166;4.474;2022-08-19T00:11:44;20.10;1.00
25933;DHT22;13731;51.166;4.474;2022-08-19T00:14:12;20.10;1.00
25933;DHT22;13731;51.166;4.474;2022-08-19T00:16:39;20.30;1.00
25933;DHT22;13731;51.166;4.474;2022-08-19T00:19:07;20.30;1.00
25933;DHT22;13731;51.166;4.474;2022-08-19T00:21:33;20.10;1.00
25933;DHT22;13731;51.166;4.474;2022-08-19T00:24:02;20.00;1.00
25933;DHT22;13731;51.166;4.474;2022-08-19T00:26:28;19.90;1.00
25933;DHT22;13731;51.166;4.474;2022-08-19T00:28:55;19.90;1.00
25933;DHT22;13731;51.166;4.474;2022-08-19T00:31:21;19.80;1.00
25933;DHT22;13731;51.166;4.474;2022-08-19T00:33:47;19.70;1.00
25933;DHT22;13731;51.166;4.474;2022-08-19T00:36:17;19.70;1.00
25933;DHT22;13731;51.166;4.474;2022-08-19T00:38:43;19.70;1.00
25933;DHT22;13731;51.166;4.474;2022-08-19T00:41:14;19.70;1.00
25933;DHT22;13731;51.166;4.474;2022-08-19T00:43:41;19.80;1.00
25933;DHT22;13731;51.166;4.474;2022-08-19T00:46:08;19.80;1.00
25933;DHT22;13731;51.166;4.474;2022-08-19T00:48:34;19.70;1.00
25933;DHT22;13731;51.166;4.474;2022-08-19T00:51:02;19.70;1.00
25933;DHT22;13731;51.166;4.474;2022-08-19T00:53:31;19.60;3.90
25933;DHT22;13731;51.166;4.474;2022-08-19T00:56:00;19.60;10.90
25933;DHT22;13731;51.166;4.474;2022-08-19T00:58:29;19.50;14.20
25933;DHT22;13731;51.166;4.474;2022-08-19T01:00:55;19.50;12.90
25933;DHT22;13731;51.166;4.474;2022-08-19T01:03:23;19.50;13.50
25933;DHT22;13731;51.166;4.474;2022-08-19T01:05:50;19.40;21.60
25933;DHT22;13731;51.166;4.474;2022-08-19T01:08:18;19.40;22.80
25933;DHT22;13731;51.166;4.474;2022-08-19T01:10:54;19.40;22.80
25933;DHT22;13731;51.166;4.474;2022-08-19T01:13:23;19.30;24.60
25933;DHT22;13731;51.166;4.474;2022-08-19T01:16:10;19.20;37.90
25933;DHT22;13731;51.166;4.474;2022-08-19T01:18:40;19.10;44.10
25933;DHT22;13731;51.166;4.474;2022-08-19T01:21:16;19.10;45.70
25933;DHT22;13731;51.166;4.474;2022-08-19T01:23:44;18.90;55.70
25933;DHT22;13731;51.166;4.474;2022-08-19T01:26:16;18.90;58.50
25933;DHT22;13731;51.166;4.474;2022-08-19T01:28:43;18.90;64.00
25933;DHT22;13731;51.166;4.474;2022-08-19T01:31:15;18.80;65.70
25933;DHT22;13731;51.166;4.474;2022-08-19T01:33:41;18.70;68.10
25933;DHT22;13731;51.166;4.474;2022-08-19T01:36:11;18.70;63.60
25933;DHT22;13731;51.166;4.474;2022-08-19T01:38:40;18.60;69.90
25933;DHT22;13731;51.166;4.474;2022-08-19T01:41:07;18.60;66.90
25933;DHT22;13731;51.166;4.474;2022-08-19T01:43:33;18.70;55.80
25933;DHT22;13731;51.166;4.474;2022-08-19T01:45:59;18.60;55.00
25933;DHT22;13731;51.166;4.474;2022-08-19T01:48:25;18.70;55.10
25933;DHT22;13731;51.166;4.474;2022-08-19T01:50:50;18.60;58.50
25933;DHT22;13731;51.166;4.474;2022-08-19T01:53:17;18.70;53.60
25933;DHT22;13731;51.166;4.474;2022-08-19T01:55:43;18.70;51.70
25933;DHT22;13731;51.166;4.474;2022-08-19T01:58:16;18.60;58.90
25933;DHT22;13731;51.166;4.474;2022-08-19T02:00:44;18.70;53.40
25933;DHT22;13731;51.166;4.474;2022-08-19T02:03:10;18.70;49.00
25933;DHT22;13731;51.166;4.474;2022-08-19T02:05:37;18.70;47.30
25933;DHT22;13731;51.166;4.474;2022-08-19T02:08:03;18.70;48.90
25933;DHT22;13731;51.166;4.474;2022-08-19T02:10:29;18.70;46.00
25933;DHT22;13731;51.166;4.474;2022-08-19T02:12:55;18.70;43.30
25933;DHT22;13731;51.166;4.474;2022-08-19T02:15:21;18.60;50.40
25933;DHT22;13731;51.166;4.474;2022-08-19T02:17:48;18.60;50.30
25933;DHT22;13731;51.166;4.474;2022-08-19T02:20:14;18.60;51.40
25933;DHT22;13731;51.166;4.474;2022-08-19T02:22:41;18.50;51.70
25933;DHT22;13731;51.166;4.474;2022-08-19T02:25:13;18.50;55.40
25933;DHT22;13731;51.166;4.474;2022-08-19T02:27:40;18.40;64.40
25933;DHT22;13731;51.166;4.474;2022-08-19T02:30:09;18.40;65.00
25933;DHT22;13731;51.166;4.474;2022-08-19T02:32:35;18.40;68.90
25933;DHT22;13731;51.166;4.474;2022-08-19T02:35:01;18.30;75.80
25933;DHT22;13731;51.166;4.474;2022-08-19T02:37:27;18.30;76.20
25933;DHT22;13731;51.166;4.474;2022-08-19T02:40:12;18.20;79.80
25933;DHT22;13731;51.166;4.474;2022-08-19T02:42:38;18.20;79.60
25933;DHT22;13731;51.166;4.474;2022-08-19T02:45:06;18.30;72.70
25933;DHT22;13731;51.166;4.474;2022-08-19T02:47:33;18.30;77.40
25933;DHT22;13731;51.166;4.474;2022-08-19T02:50:02;18.30;65.10
25933;DHT22;13731;51.166;4.474;2022-08-19T02:52:28;18.30;67.00
25933;DHT22;13731;51.166;4.474;2022-08-19T02:54:54;18.10;84.80
25933;DHT22;13731;51.166;4.474;2022-08-19T02:57:23;18.10;91.70
25933;DHT22;13731;51.166;4.474;2022-08-19T02:59:49;18.10;84.20
25933;DHT22;13731;51.166;4.474;2022-08-19T03:02:15;18.10;83.60
25933;DHT22;13731;51.166;4.474;2022-08-19T03:04:42;18.10;74.10
25933;DHT22;13731;51.166;4.474;2022-08-19T03:07:09;18.10;70.50
25933;DHT22;13731;51.166;4.474;2022-08-19T03:09:37;18.10;77.10
25933;DHT22;13731;51.166;4.474;2022-08-19T03:12:03;18.10;71.60
25933;DHT22;13731;51.166;4.474;2022-08-19T03:14:33;18.10;74.50
25933;DHT22;13731;51.166;4.474;2022-08-19T03:16:59;18.10;66.10
25933;DHT22;13731;51.166;4.474;2022-08-19T03:19:25;18.10;67.20
25933;DHT22;13731;51.166;4.474;2022-08-19T03:21:52;18.10;76.70
25933;DHT22;13731;51.166;4.474;2022-08-19T03:24:19;18.00;78.30
25933;DHT22;13731;51.166;4.474;2022-08-19T03:26:48;17.90;90.60
25933;DHT22;13731;51.166;4.474;2022-08-19T03:29:15;17.90;92.60
25933;DHT22;13731;51.166;4.474;2022-08-19T03:31:43;17.80;92.50
25933;DHT22;13731;51.166;4.474;2022-08-19T03:34:10;17.90;88.30
25933;DHT22;13731;51.166;4.474;2022-08-19T03:36:37;17.70;96.00
25933;DHT22;13731;51.166;4.474;2022-08-19T03:39:03;17.70;97.90
25933;DHT22;13731;51.166;4.474;2022-08-19T03:41:39;17.70;97.10
25933;DHT22;13731;51.166;4.474;2022-08-19T03:44:06;17.60;97.50
25933;DHT22;13731;51.166;4.474;2022-08-19T03:46:34;17.50;99.90
25933;DHT22;13731;51.166;4.474;2022-08-19T03:49:03;17.50;99.90
25933;DHT22;13731;51.166;4.474;2022-08-19T03:51:38;17.60;99.60
25933;DHT22;13731;51.166;4.474;2022-08-19T03:54:07;17.80;86.00
25933;DHT22;13731;51.166;4.474;2022-08-19T03:56:37;17.50;97.80
25933;DHT22;13731;51.166;4.474;2022-08-19T03:59:06;17.40;99.90
25933;DHT22;13731;51.166;4.474;2022-08-19T04:01:32;17.40;99.90
25933;DHT22;13731;51.166;4.474;2022-08-19T04:03:59;17.40;99.90
25933;DHT22;13731;51.166;4.474;2022-08-19T04:06:28;17.30;99.90
25933;DHT22;13731;51.166;4.474;2022-08-19T04:08:57;17.40;99.90
25933;DHT22;13731;51.166;4.474;2022-08-19T04:11:26;17.30;99.90
25933;DHT22;13731;51.166;4.474;2022-08-19T04:13:53;17.30;99.90
25933;DHT22;13731;51.166;4.474;2022-08-19T04:16:21;17.20;99.90
25933;DHT22;13731;51.166;4.474;2022-08-19T04:18:48;17.30;99.90
25933;DHT22;13731;51.166;4.474;2022-08-19T04:21:21;17.30;99.90
25933;DHT22;13731;51.166;4.474;2022-08-19T04:23:48;17.30;99.90
25933;DHT22;13731;51.166;4.474;2022-08-19T04:26:21;17.30;99.90
25933;DHT22;13731;51.166;4.474;2022-08-19T04:28:48;17.40;97.50
25933;DHT22;13731;51.166;4.474;2022-08-19T04:31:26;17.40;94.80
25933;DHT22;13731;51.166;4.474;2022-08-19T04:33:53;17.30;97.60
25933;DHT22;13731;51.166;4.474;2022-08-19T04:36:28;17.20;99.90
25933;DHT22;13731;51.166;4.474;2022-08-19T04:38:56;17.30;98.30
25933;DHT22;13731;51.166;4.474;2022-08-19T04:41:23;17.20;99.90
25933;DHT22;13731;51.166;4.474;2022-08-19T04:44:08;17.30;99.90
25933;DHT22;13731;51.166;4.474;2022-08-19T04:46:34;17.30;94.60
25933;DHT22;13731;51.166;4.474;2022-08-19T04:49:02;17.30;98.40
25933;DHT22;13731;51.166;4.474;2022-08-19T04:51:30;17.30;97.40
25933;DHT22;13731;51.166;4.474;2022-08-19T04:53:56;17.30;98.80
25933;DHT22;13731;51.166;4.474;2022-08-19T04:56:23;17.40;96.80
25933;DHT22;13731;51.166;4.474;2022-08-19T04:58:51;17.30;94.00
25933;DHT22;13731;51.166;4.474;2022-08-19T05:01:20;17.20;99.80
25933;DHT22;13731;51.166;4.474;2022-08-19T05:03:46;17.20;99.90
25933;DHT22;13731;51.166;4.474;2022-08-19T05:06:14;17.10;99.90
25933;DHT22;13731;51.166;4.474;2022-08-19T05:08:41;17.10;99.90
25933;DHT22;13731;51.166;4.474;2022-08-19T05:11:15;17.10;99.90
25933;DHT22;13731;51.166;4.474;2022-08-19T05:13:44;17.10;99.90
25933;DHT22;13731;51.166;4.474;2022-08-19T05:16:11;17.10;99.90
25933;DHT22;13731;51.166;4.474;2022-08-19T05:18:38;17.10;99.90
25933;DHT22;13731;51.166;4.474;2022-08-19T05:21:22;17.20;99.90
25933;DHT22;13731;51.166;4.474;2022-08-19T05:24:07;17.10;99.90
25933;DHT22;13731;51.166;4.474;2022-08-19T05:26:41;17.10;99.90
25933;DHT22;13731;51.166;4.474;2022-08-19T05:29:08;17.10;99.90
25933;DHT22;13731;51.166;4.474;2022-08-19T05:31:35;17.20;99.90
25933;DHT22;13731;51.166;4.474;2022-08-19T05:34:02;17.30;99.90
25933;DHT22;13731;51.166;4.474;2022-08-19T05:36:34;17.30;97.50
25933;DHT22;13731;51.166;4.474;2022-08-19T05:39:02;17.40;93.10
25933;DHT22;13731;51.166;4.474;2022-08-19T05:41:28;17.40;94.70
25933;DHT22;13731;51.166;4.474;2022-08-19T05:43:56;17.50;93.90
25933;DHT22;13731;51.166;4.474;2022-08-19T05:46:22;17.40;92.30
25933;DHT22;13731;51.166;4.474;2022-08-19T05:48:49;17.50;92.00
25933;DHT22;13731;51.166;4.474;2022-08-19T05:51:15;17.50;86.40
25933;DHT22;13731;51.166;4.474;2022-08-19T05:53:42;17.60;82.20
25933;DHT22;13731;51.166;4.474;2022-08-19T05:56:10;17.50;87.20
25933;DHT22;13731;51.166;4.474;2022-08-19T05:58:37;17.60;90.10
25933;DHT22;13731;51.166;4.474;2022-08-19T06:01:09;17.90;72.70
25933;DHT22;13731;51.166;4.474;2022-08-19T06:03:35;18.20;41.40
25933;DHT22;13731;51.166;4.474;2022-08-19T06:06:04;18.40;7.70
25933;DHT22;13731;51.166;4.474;2022-08-19T06:08:31;18.50;1.00
25933;DHT22;13731;51.166;4.474;2022-08-19T06:10:58;18.50;1.40
25933;DHT22;13731;51.166;4.474;2022-08-19T06:13:36;18.60;1.00
25933;DHT22;13731;51.166;4.474;2022-08-19T06:16:02;18.50;3.70
25933;DHT22;13731;51.166;4.474;2022-08-19T06:18:28;18.50;12.20
25933;DHT22;13731;51.166;4.474;2022-08-19T06:20:54;18.60;1.00
25933;DHT22;13731;51.166;4.474;2022-08-19T06:23:20;18.60;1.00
25933;DHT22;13731;51.166;4.474;2022-08-19T06:25:47;18.70;1.00
25933;DHT22;13731;51.166;4.474;2022-08-19T06:28:13;18.90;1.00
25933;DHT22;13731;51.166;4.474;2022-08-19T06:30:39;19.00;1.00
25933;DHT22;13731;51.166;4.474;2022-08-19T06:33:04;19.30;1.00
25933;DHT22;13731;51.166;4.474;2022-08-19T06:35:30;19.30;1.00
25933;DHT22;13731;51.166;4.474;2022-08-19T06:37:56;19.30;1.00
25933;DHT22;13731;51.166;4.474;2022-08-19T06:40:22;19.50;1.00
25933;DHT22;13731;51.166;4.474;2022-08-19T06:42:48;19.60;1.00
25933;DHT22;13731;51.166;4.474;2022-08-19T06:45:14;19.30;1.00
25933;DHT22;13731;51.166;4.474;2022-08-19T06:47:40;19.00;1.00
25933;DHT22;13731;51.166;4.474;2022-08-19T06:50:11;19.10;1.00
25933;DHT22;13731;51.166;4.474;2022-08-19T06:52:38;19.40;1.00
25933;DHT22;13731;51.166;4.474;2022-08-19T06:55:05;19.50;1.00
25933;DHT22;13731;51.166;4.474;2022-08-19T06:57:31;19.50;1.00
25933;DHT22;13731;51.166;4.474;2022-08-19T06:59:58;19.70;1.00
25933;DHT22;13731;51.166;4.474;2022-08-19T07:02:25;19.70;1.00
25933;DHT22;13731;51.166;4.474;2022-08-19T07:04:52;19.80;1.00
25933;DHT22;13731;51.166;4.474;2022-08-19T07:07:20;19.80;1.00
25933;DHT22;13731;51.166;4.474;2022-08-19T07:09:46;19.90;1.00
25933;DHT22;13731;51.166;4.474;2022-08-19T07:12:13;20.40;99.90
25933;DHT22;13731;51.166;4.474;2022-08-19T07:14:43;20.20;1.00
25933;DHT22;13731;51.166;4.474;2022-08-19T07:17:12;20.20;1.00
25933;DHT22;13731;51.166;4.474;2022-08-19T07:19:38;20.20;1.00
25933;DHT22;13731;51.166;4.474;2022-08-19T07:22:06;20.10;1.00
25933;DHT22;13731;51.166;4.474;2022-08-19T07:24:33;20.00;1.00
25933;DHT22;13731;51.166;4.474;2022-08-19T07:27:02;20.10;1.00
25933;DHT22;13731;51.166;4.474;2022-08-19T07:29:30;20.10;1.00
25933;DHT22;13731;51.166;4.474;2022-08-19T07:32:00;19.90;1.00
25933;DHT22;13731;51.166;4.474;2022-08-19T07:34:28;19.80;1.00
25933;DHT22;13731;51.166;4.474;2022-08-19T07:36:55;19.90;1.00
25933;DHT22;13731;51.166;4.474;2022-08-19T07:39:27;20.00;1.00
25933;DHT22;13731;51.166;4.474;2022-08-19T07:41:53;20.20;1.00
25933;DHT22;13731;51.166;4.474;2022-08-19T07:44:19;20.20;1.00
25933;DHT22;13731;51.166;4.474;2022-08-19T07:46:49;20.00;1.00
25933;DHT22;13731;51.166;4.474;2022-08-19T07:49:16;20.00;1.00
25933;DHT22;13731;51.166;4.474;2022-08-19T07:51:54;20.30;1.00
25933;DHT22;13731;51.166;4.474;2022-08-19T07:54:22;20.30;1.00
25933;DHT22;13731;51.166;4.474;2022-08-19T07:56:48;20.60;1.00
25933;DHT22;13731;51.166;4.474;2022-08-19T07:59:18;20.80;1.00
25933;DHT22;13731;51.166;4.474;2022-08-19T08:01:44;21.10;99.90
25933;DHT22;13731;51.166;4.474;2022-08-19T08:04:12;20.80;99.90
25933;DHT22;13731;51.166;4.474;2022-08-19T08:06:57;20.70;1.00
25933;DHT22;13731;51.166;4.474;2022-08-19T08:09:42;20.80;1.00
25933;DHT22;13731;51.166;4.474;2022-08-19T08:12:25;20.90;1.00
25933;DHT22;13731;51.166;4.474;2022-08-19T08:14:57;20.70;1.00
25933;DHT22;13731;51.166;4.474;2022-08-19T08:17:26;20.70;1.00
25933;DHT22;13731;51.166;4.474;2022-08-19T08:19:53;20.80;1.00
25933;DHT22;13731;51.166;4.474;2022-08-19T08:22:20;20.90;1.00
25933;DHT22;13731;51.166;4.474;2022-08-19T08:25:14;21.30;1.00
25933;DHT22;13731;51.166;4.474;2022-08-19T08:27:41;21.70;99.90
25933;DHT22;13731;51.166;4.474;2022-08-19T08:30:14;21.40;99.90
25933;DHT22;13731;51.166;4.474;2022-08-19T08:32:41;21.60;99.90
25933;DHT22;13731;51.166;4.474;2022-08-19T08:35:10;21.80;99.90
25933;DHT22;13731;51.166;4.474;2022-08-19T08:37:36;21.80;99.90
25933;DHT22;13731;51.166;4.474;2022-08-19T08:43:22;22.40;1.00
25933;DHT22;13731;51.166;4.474;2022-08-19T08:46:10;22.60;99.90
25933;DHT22;13731;51.166;4.474;2022-08-19T08:51:29;22.80;99.90
25933;DHT22;13731;51.166;4.474;2022-08-19T08:53:59;22.90;99.90
25933;DHT22;13731;51.166;4.474;2022-08-19T08:56:25;22.70;99.90
25933;DHT22;13731;51.166;4.474;2022-08-19T08:59:12;22.60;99.90
25933;DHT22;13731;51.166;4.474;2022-08-19T09:01:38;22.40;1.00
25933;DHT22;13731;51.166;4.474;2022-08-19T09:04:05;22.60;99.90
25933;DHT22;13731;51.166;4.474;2022-08-19T09:09:45;22.00;1.00
25933;DHT22;13731;51.166;4.474;2022-08-19T09:12:38;21.90;99.90
25933;DHT22;13731;51.166;4.474;2022-08-19T09:15:10;21.80;99.90
25933;DHT22;13731;51.166;4.474;2022-08-19T09:17:37;22.00;42.50
25933;DHT22;13731;51.166;4.474;2022-08-19T09:20:06;22.10;1.00
25933;DHT22;13731;51.166;4.474;2022-08-19T09:22:35;22.10;1.00
25933;DHT22;13731;51.166;4.474;2022-08-19T09:25:02;22.20;1.00
25933;DHT22;13731;51.166;4.474;2022-08-19T09:27:29;22.30;1.00
25933;DHT22;13731;51.166;4.474;2022-08-19T09:29:55;22.30;1.00
25933;DHT22;13731;51.166;4.474;2022-08-19T09:32:22;22.60;99.90
25933;DHT22;13731;51.166;4.474;2022-08-19T09:34:48;22.80;99.90
25933;DHT22;13731;51.166;4.474;2022-08-19T09:37:14;23.00;1.00
25933;DHT22;13731;51.166;4.474;2022-08-19T09:39:40;23.10;1.00
25933;DHT22;13731;51.166;4.474;2022-08-19T09:42:07;22.60;99.90
25933;DHT22;13731;51.166;4.474;2022-08-19T09:44:41;22.70;99.90
25933;DHT22;13731;51.166;4.474;2022-08-19T09:47:08;22.90;67.60
25933;DHT22;13731;51.166;4.474;2022-08-19T09:49:35;22.80;98.60
25933;DHT22;13731;51.166;4.474;2022-08-19T09:52:01;22.50;99.90
25933;DHT22;13731;51.166;4.474;2022-08-19T09:54:27;22.60;1.00
25933;DHT22;13731;51.166;4.474;2022-08-19T09:56:54;22.90;80.90
25933;DHT22;13731;51.166;4.474;2022-08-19T09:59:21;23.10;1.00
25933;DHT22;13731;51.166;4.474;2022-08-19T10:01:47;23.50;99.90
25933;DHT22;13731;51.166;4.474;2022-08-19T10:04:13;23.60;95.30
25933;DHT22;13731;51.166;4.474;2022-08-19T10:06:39;23.60;1.00
25933;DHT22;13731;51.166;4.474;2022-08-19T10:09:08;23.70;1.00
25933;DHT22;13731;51.166;4.474;2022-08-19T10:11:35;23.70;1.00
25933;DHT22;13731;51.166;4.474;2022-08-19T10:14:03;23.60;1.00
25933;DHT22;13731;51.166;4.474;2022-08-19T10:16:31;23.40;99.90
25933;DHT22;13731;51.166;4.474;2022-08-19T10:18:57;23.40;99.90
25933;DHT22;13731;51.166;4.474;2022-08-19T10:21:29;23.00;1.00
25933;DHT22;13731;51.166;4.474;2022-08-19T10:23:57;22.90;99.90
25933;DHT22;13731;51.166;4.474;2022-08-19T10:26:27;23.10;1.00
25933;DHT22;13731;51.166;4.474;2022-08-19T10:28:53;23.00;1.00
25933;DHT22;13731;51.166;4.474;2022-08-19T10:31:27;22.80;99.90
25933;DHT22;13731;51.166;4.474;2022-08-19T10:33:54;22.70;99.90
25933;DHT22;13731;51.166;4.474;2022-08-19T10:36:25;22.60;1.00
25933;DHT22;13731;51.166;4.474;2022-08-19T10:38:53;22.70;1.00
25933;DHT22;13731;51.166;4.474;2022-08-19T10:41:23;22.70;1.00
25933;DHT22;13731;51.166;4.474;2022-08-19T10:43:54;22.80;1.00
25933;DHT22;13731;51.166;4.474;2022-08-19T10:46:22;23.00;99.90
25933;DHT22;13731;51.166;4.474;2022-08-19T10:48:49;23.00;99.90
25933;DHT22;13731;51.166;4.474;2022-08-19T10:51:16;22.90;99.90
25933;DHT22;13731;51.166;4.474;2022-08-19T10:54:00;23.10;99.90
25933;DHT22;13731;51.166;4.474;2022-08-19T10:56:27;23.30;32.20
25933;DHT22;13731;51.166;4.474;2022-08-19T10:59:12;23.30;1.00
25933;DHT22;13731;51.166;4.474;2022-08-19T11:01:41;23.70;99.90
25933;DHT22;13731;51.166;4.474;2022-08-19T11:04:08;23.90;1.00
25933;DHT22;13731;51.166;4.474;2022-08-19T11:06:43;23.90;99.90
25933;DHT22;13731;51.166;4.474;2022-08-19T11:09:09;23.70;1.00
25933;DHT22;13731;51.166;4.474;2022-08-19T11:11:37;23.80;99.90
25933;DHT22;13731;51.166;4.474;2022-08-19T11:14:11;23.70;1.00
25933;DHT22;13731;51.166;4.474;2022-08-19T11:16:38;23.60;99.90
25933;DHT22;13731;51.166;4.474;2022-08-19T11:19:09;23.80;99.90
25933;DHT22;13731;51.166;4.474;2022-08-19T11:21:37;24.50;1.00
25933;DHT22;13731;51.166;4.474;2022-08-19T11:24:08;24.90;1.00
25933;DHT22;13731;51.166;4.474;2022-08-19T11:26:34;25.10;99.90
25933;DHT22;13731;51.166;4.474;2022-08-19T11:29:02;25.00;99.90
25933;DHT22;13731;51.166;4.474;2022-08-19T11:31:30;24.70;1.00
25933;DHT22;13731;51.166;4.474;2022-08-19T11:33:58;24.90;99.90
25933;DHT22;13731;51.166;4.474;2022-08-19T11:36:25;23.90;99.90
25933;DHT22;13731;51.166;4.474;2022-08-19T11:38:52;23.60;99.90
25933;DHT22;13731;51.166;4.474;2022-08-19T11:41:19;23.70;1.00
25933;DHT22;13731;51.166;4.474;2022-08-19T11:43:46;24.00;99.90
25933;DHT22;13731;51.166;4.474;2022-08-19T11:46:13;23.90;99.90
25933;DHT22;13731;51.166;4.474;2022-08-19T11:48:40;24.40;27.40
25933;DHT22;13731;51.166;4.474;2022-08-19T11:51:10;24.70;1.00
25933;DHT22;13731;51.166;4.474;2022-08-19T11:53:37;24.90;1.00
25933;DHT22;13731;51.166;4.474;2022-08-19T11:56:05;25.30;1.00
25933;DHT22;13731;51.166;4.474;2022-08-19T11:58:31;25.60;99.90
25933;DHT22;13731;51.166;4.474;2022-08-19T12:00:57;25.00;99.90
25933;DHT22;13731;51.166;4.474;2022-08-19T12:03:23;25.50;99.90
25933;DHT22;13731;51.166;4.474;2022-08-19T12:05:49;25.30;1.00
25933;DHT22;13731;51.166;4.474;2022-08-19T12:08:16;25.40;1.00
25933;DHT22;13731;51.166;4.474;2022-08-19T12:10:42;25.50;99.90
25933;DHT22;13731;51.166;4.474;2022-08-19T12:13:09;25.20;1.00
25933;DHT22;13731;51.166;4.474;2022-08-19T12:15:39;24.70;18.90
25933;DHT22;13731;51.166;4.474;2022-08-19T12:18:08;24.70;93.00
25933;DHT22;13731;51.166;4.474;2022-08-19T12:20:39;24.50;1.00
25933;DHT22;13731;51.166;4.474;2022-08-19T12:23:07;24.50;99.90
25933;DHT22;13731;51.166;4.474;2022-08-19T12:25:35;25.00;99.90
25933;DHT22;13731;51.166;4.474;2022-08-19T12:28:02;25.50;1.00
25933;DHT22;13731;51.166;4.474;2022-08-19T12:30:28;26.00;99.90
25933;DHT22;13731;51.166;4.474;2022-08-19T12:32:54;26.60;1.00
25933;DHT22;13731;51.166;4.474;2022-08-19T12:35:20;26.80;99.90
25933;DHT22;13731;51.166;4.474;2022-08-19T12:37:47;27.20;1.00
25933;DHT22;13731;51.166;4.474;2022-08-19T12:40:15;28.10;1.00
25933;DHT22;13731;51.166;4.474;2022-08-19T12:42:41;27.60;1.00
25933;DHT22;13731;51.166;4.474;2022-08-19T12:45:12;27.30;99.90
25933;DHT22;13731;51.166;4.474;2022-08-19T12:47:38;26.80;1.00
25933;DHT22;13731;51.166;4.474;2022-08-19T12:50:05;27.10;1.00
25933;DHT22;13731;51.166;4.474;2022-08-19T12:52:35;27.30;99.90
25933;DHT22;13731;51.166;4.474;2022-08-19T12:55:04;25.90;1.00
25933;DHT22;13731;51.166;4.474;2022-08-19T12:57:30;25.40;99.90
25933;DHT22;13731;51.166;4.474;2022-08-19T13:00:06;25.20;1.00
25933;DHT22;13731;51.166;4.474;2022-08-19T13:02:38;25.20;1.00
25933;DHT22;13731;51.166;4.474;2022-08-19T13:05:09;25.20;1.00
25933;DHT22;13731;51.166;4.474;2022-08-19T13:07:38;25.40;84.60
25933;DHT22;13731;51.166;4.474;2022-08-19T13:10:06;25.50;99.90
25933;DHT22;13731;51.166;4.474;2022-08-19T13:12:32;25.40;99.90
25933;DHT22;13731;51.166;4.474;2022-08-19T13:14:58;25.60;99.90
25933;DHT22;13731;51.166;4.474;2022-08-19T13:17:24;25.80;1.00
25933;DHT22;13731;51.166;4.474;2022-08-19T13:19:50;26.00;99.90
25933;DHT22;13731;51.166;4.474;2022-08-19T13:22:16;25.70;1.00
25933;DHT22;13731;51.166;4.474;2022-08-19T13:24:42;25.70;1.00
25933;DHT22;13731;51.166;4.474;2022-08-19T13:27:08;25.80;1.00
25933;DHT22;13731;51.166;4.474;2022-08-19T13:29:34;26.00;99.90
25933;DHT22;13731;51.166;4.474;2022-08-19T13:32:19;26.30;82.10
25933;DHT22;13731;51.166;4.474;2022-08-19T13:35:04;27.50;99.90
25933;DHT22;13731;51.166;4.474;2022-08-19T13:37:30;28.90;99.90
25933;DHT22;13731;51.166;4.474;2022-08-19T13:40:14;30.80;1.00
25933;DHT22;13731;51.166;4.474;2022-08-19T13:42:44;31.80;99.90
25933;DHT22;13731;51.166;4.474;2022-08-19T13:45:14;31.50;99.90
25933;DHT22;13731;51.166;4.474;2022-08-19T13:47:41;30.50;99.90
25933;DHT22;13731;51.166;4.474;2022-08-19T13:50:14;30.70;99.90
25933;DHT22;13731;51.166;4.474;2022-08-19T13:52:41;30.20;99.90
25933;DHT22;13731;51.166;4.474;2022-08-19T13:55:08;29.90;99.90
25933;DHT22;13731;51.166;4.474;2022-08-19T13:57:34;30.50;99.90
25933;DHT22;13731;51.166;4.474;2022-08-19T14:00:02;31.80;99.90
25933;DHT22;13731;51.166;4.474;2022-08-19T14:02:30;31.60;99.90
25933;DHT22;13731;51.166;4.474;2022-08-19T14:04:56;31.30;99.90
25933;DHT22;13731;51.166;4.474;2022-08-19T14:07:22;30.80;99.90
25933;DHT22;13731;51.166;4.474;2022-08-19T14:09:50;30.70;99.90
25933;DHT22;13731;51.166;4.474;2022-08-19T14:12:19;31.40;99.90
25933;DHT22;13731;51.166;4.474;2022-08-19T14:14:46;32.20;99.90
25933;DHT22;13731;51.166;4.474;2022-08-19T14:17:13;31.40;99.90
25933;DHT22;13731;51.166;4.474;2022-08-19T14:19:39;30.30;99.90
25933;DHT22;13731;51.166;4.474;2022-08-19T14:22:05;29.40;99.90
25933;DHT22;13731;51.166;4.474;2022-08-19T14:24:31;28.60;1.00
25933;DHT22;13731;51.166;4.474;2022-08-19T14:27:00;27.90;1.00
25933;DHT22;13731;51.166;4.474;2022-08-19T14:29:26;27.60;97.80
25933;DHT22;13731;51.166;4.474;2022-08-19T14:31:54;27.50;99.90
25933;DHT22;13731;51.166;4.474;2022-08-19T14:34:21;27.90;1.00
25933;DHT22;13731;51.166;4.474;2022-08-19T14:36:48;27.70;1.00
25933;DHT22;13731;51.166;4.474;2022-08-19T14:39:14;27.50;1.00
25933;DHT22;13731;51.166;4.474;2022-08-19T14:41:41;27.10;99.90
25933;DHT22;13731;51.166;4.474;2022-08-19T14:44:08;26.80;1.00
25933;DHT22;13731;51.166;4.474;2022-08-19T14:46:38;26.50;99.90
25933;DHT22;13731;51.166;4.474;2022-08-19T14:49:04;26.30;99.90
25933;DHT22;13731;51.166;4.474;2022-08-19T14:51:31;26.00;1.00
25933;DHT22;13731;51.166;4.474;2022-08-19T14:53:57;25.70;99.90
25933;DHT22;13731;51.166;4.474;2022-08-19T14:56:25;25.20;1.00
25933;DHT22;13731;51.166;4.474;2022-08-19T14:58:52;24.40;99.90
25933;DHT22;13731;51.166;4.474;2022-08-19T15:01:19;23.90;99.90
25933;DHT22;13731;51.166;4.474;2022-08-19T15:03:46;23.10;99.90
25933;DHT22;13731;51.166;4.474;2022-08-19T15:06:12;22.60;99.90
25933;DHT22;13731;51.166;4.474;2022-08-19T15:08:39;22.00;1.00
25933;DHT22;13731;51.166;4.474;2022-08-19T15:11:12;21.60;1.00
25933;DHT22;13731;51.166;4.474;2022-08-19T15:13:40;21.20;5.60
25933;DHT22;13731;51.166;4.474;2022-08-19T15:16:07;20.80;72.00
25933;DHT22;13731;51.166;4.474;2022-08-19T15:18:33;20.80;82.00
25933;DHT22;13731;51.166;4.474;2022-08-19T15:21:01;20.80;61.30
25933;DHT22;13731;51.166;4.474;2022-08-19T15:23:27;20.70;64.30
25933;DHT22;13731;51.166;4.474;2022-08-19T15:25:53;20.90;72.60
25933;DHT22;13731;51.166;4.474;2022-08-19T15:28:25;21.10;59.40
25933;DHT22;13731;51.166;4.474;2022-08-19T15:30:52;21.30;41.30
25933;DHT22;13731;51.166;4.474;2022-08-19T15:33:18;21.40;57.50
25933;DHT22;13731;51.166;4.474;2022-08-19T15:35:46;21.60;53.90
25933;DHT22;13731;51.166;4.474;2022-08-19T15:38:13;21.80;47.00
25933;DHT22;13731;51.166;4.474;2022-08-19T15:40:40;22.20;1.00
25933;DHT22;13731;51.166;4.474;2022-08-19T15:43:06;23.30;1.00
25933;DHT22;13731;51.166;4.474;2022-08-19T15:45:33;25.60;1.00
25933;DHT22;13731;51.166;4.474;2022-08-19T15:48:00;26.70;99.90
25933;DHT22;13731;51.166;4.474;2022-08-19T15:50:26;27.10;99.90
25933;DHT22;13731;51.166;4.474;2022-08-19T15:52:56;26.80;17.40
25933;DHT22;13731;51.166;4.474;2022-08-19T15:55:25;27.00;99.90